sensor_id;sensor_type;location;lat;lon;timestamp;pressure;altitude;pressure_sealevel;temperature;humidity
66196;BME280;53000;45.182;5.736;2022-11-12T00:01:05;100853.81;;;12.57;63.47
66196;BME280;53000;45.182;5.736;2022-11-12T00:03:33;100860.38;;;12.55;63.40
66196;BME280;53000;45.182;5.736;2022-11-12T00:05:58;100856.81;;;12.54;63.46
66196;BME280;53000;45.182;5.736;2022-11-12T00:08:26;100858.69;;;12.54;63.31
66196;BME280;53000;45.182;5.736;2022-11-12T00:10:51;100854.41;;;12.51;63.84
66196;BME280;53000;45.182;5.736;2022-11-12T00:13:16;100859.97;;;12.50;63.33
66196;BME280;53000;45.182;5.736;2022-11-12T00:15:47;100859.25;;;12.47;63.15
66196;BME280;53000;45.182;5.736;2022-11-12T00:18:13;100845.41;;;12.41;63.52
66196;BME280;53000;45.182;5.736;2022-11-12T00:20:40;100856.81;;;12.35;63.62
66196;BME280;53000;45.182;5.736;2022-11-12T00:23:10;100850.81;;;12.31;64.02
66196;BME280;53000;45.182;5.736;2022-11-12T00:25:35;100854.38;;;12.32;63.97
66196;BME280;53000;45.182;5.736;2022-11-12T00:28:08;100852.53;;;12.32;63.78
66196;BME280;53000;45.182;5.736;2022-11-12T00:30:41;100859.53;;;12.35;64.00
66196;BME280;53000;45.182;5.736;2022-11-12T00:33:09;100854.97;;;12.35;64.05
66196;BME280;53000;45.182;5.736;2022-11-12T00:35:34;100854.81;;;12.37;64.18
66196;BME280;53000;45.182;5.736;2022-11-12T00:38:00;100847.53;;;12.37;64.08
66196;BME280;53000;45.182;5.736;2022-11-12T00:40:26;100848.38;;;12.38;63.86
66196;BME280;53000;45.182;5.736;2022-11-12T00:42:52;100852.09;;;12.37;64.19
66196;BME280;53000;45.182;5.736;2022-11-12T00:45:19;100852.81;;;12.39;64.06
66196;BME280;53000;45.182;5.736;2022-11-12T00:47:50;100849.25;;;12.38;64.03
66196;BME280;53000;45.182;5.736;2022-11-12T00:50:17;100845.53;;;12.39;63.86
66196;BME280;53000;45.182;5.736;2022-11-12T00:52:47;100839.50;;;12.36;64.64
66196;BME280;53000;45.182;5.736;2022-11-12T00:55:17;100849.97;;;12.31;64.48
66196;BME280;53000;45.182;5.736;2022-11-12T00:57:43;100847.25;;;12.31;64.43
66196;BME280;53000;45.182;5.736;2022-11-12T01:00:17;100842.53;;;12.33;64.14
66196;BME280;53000;45.182;5.736;2022-11-12T01:02:43;100842.66;;;12.31;64.10
66196;BME280;53000;45.182;5.736;2022-11-12T01:05:08;100851.97;;;12.28;64.00
66196;BME280;53000;45.182;5.736;2022-11-12T01:07:36;100859.09;;;12.30;64.30
66196;BME280;53000;45.182;5.736;2022-11-12T01:10:02;100849.09;;;12.30;63.95
66196;BME280;53000;45.182;5.736;2022-11-12T01:12:29;100851.81;;;12.30;63.59
66196;BME280;53000;45.182;5.736;2022-11-12T01:14:57;100849.38;;;12.27;63.99
66196;BME280;53000;45.182;5.736;2022-11-12T01:17:23;100848.53;;;12.26;63.54
66196;BME280;53000;45.182;5.736;2022-11-12T01:19:49;100852.25;;;12.25;63.93
66196;BME280;53000;45.182;5.736;2022-11-12T01:22:14;100848.81;;;12.23;63.94
66196;BME280;53000;45.182;5.736;2022-11-12T01:24:40;100837.25;;;12.21;63.57
66196;BME280;53000;45.182;5.736;2022-11-12T01:27:05;100842.69;;;12.21;63.90
66196;BME280;53000;45.182;5.736;2022-11-12T01:29:32;100839.38;;;12.18;63.94
66196;BME280;53000;45.182;5.736;2022-11-12T01:31:58;100838.97;;;12.13;63.88
66196;BME280;53000;45.182;5.736;2022-11-12T01:34:24;100830.94;;;12.11;63.85
66196;BME280;53000;45.182;5.736;2022-11-12T01:36:50;100832.94;;;12.09;63.79
66196;BME280;53000;45.182;5.736;2022-11-12T01:39:15;100828.50;;;12.08;63.96
66196;BME280;53000;45.182;5.736;2022-11-12T01:41:41;100824.22;;;12.05;64.04
66196;BME280;53000;45.182;5.736;2022-11-12T01:44:18;100829.63;;;12.05;63.59
66196;BME280;53000;45.182;5.736;2022-11-12T01:47:08;100830.50;;;12.06;63.54
66196;BME280;53000;45.182;5.736;2022-11-12T01:49:42;100826.38;;;12.02;63.79
66196;BME280;53000;45.182;5.736;2022-11-12T01:52:26;100823.22;;;11.97;63.51
66196;BME280;53000;45.182;5.736;2022-11-12T01:55:06;100826.06;;;11.95;63.82
66196;BME280;53000;45.182;5.736;2022-11-12T01:57:59;100838.78;;;11.95;63.48
66196;BME280;53000;45.182;5.736;2022-11-12T02:00:28;100830.94;;;11.92;63.62
66196;BME280;53000;45.182;5.736;2022-11-12T02:02:57;100827.34;;;11.91;63.95
66196;BME280;53000;45.182;5.736;2022-11-12T02:05:27;100817.75;;;11.87;64.04
66196;BME280;53000;45.182;5.736;2022-11-12T02:07:58;100822.06;;;11.90;63.84
66196;BME280;53000;45.182;5.736;2022-11-12T02:10:24;100824.16;;;11.86;63.84
66196;BME280;53000;45.182;5.736;2022-11-12T02:12:56;100819.88;;;11.83;64.10
66196;BME280;53000;45.182;5.736;2022-11-12T02:15:40;100816.31;;;11.83;63.82
66196;BME280;53000;45.182;5.736;2022-11-12T02:18:09;100826.44;;;11.81;63.91
66196;BME280;53000;45.182;5.736;2022-11-12T02:20:35;100825.72;;;11.79;63.65
66196;BME280;53000;45.182;5.736;2022-11-12T02:23:02;100826.69;;;11.78;63.65
66196;BME280;53000;45.182;5.736;2022-11-12T02:25:28;100826.41;;;11.71;63.59
66196;BME280;53000;45.182;5.736;2022-11-12T02:27:55;100817.13;;;11.64;63.53
66196;BME280;53000;45.182;5.736;2022-11-12T02:30:38;100817.53;;;11.59;63.63
66196;BME280;53000;45.182;5.736;2022-11-12T02:33:06;100816.66;;;11.59;63.93
66196;BME280;53000;45.182;5.736;2022-11-12T02:35:31;100819.53;;;11.57;64.46
66196;BME280;53000;45.182;5.736;2022-11-12T02:38:00;100817.25;;;11.53;64.25
66196;BME280;53000;45.182;5.736;2022-11-12T02:40:25;100813.09;;;11.49;64.04
66196;BME280;53000;45.182;5.736;2022-11-12T02:42:53;100814.47;;;11.43;64.83
66196;BME280;53000;45.182;5.736;2022-11-12T02:45:27;100805.03;;;11.37;64.44
66196;BME280;53000;45.182;5.736;2022-11-12T02:47:54;100809.16;;;11.32;65.02
66196;BME280;53000;45.182;5.736;2022-11-12T02:50:20;100802.31;;;11.28;65.06
66196;BME280;53000;45.182;5.736;2022-11-12T02:52:48;100801.56;;;11.25;64.82
66196;BME280;53000;45.182;5.736;2022-11-12T02:55:17;100801.13;;;11.20;64.76
66196;BME280;53000;45.182;5.736;2022-11-12T02:57:42;100794.84;;;11.20;64.33
66196;BME280;53000;45.182;5.736;2022-11-12T03:00:12;100796.41;;;11.22;65.04
66196;BME280;53000;45.182;5.736;2022-11-12T03:02:37;100790.13;;;11.22;64.62
66196;BME280;53000;45.182;5.736;2022-11-12T03:05:28;100794.13;;;11.18;64.57
66196;BME280;53000;45.182;5.736;2022-11-12T03:07:59;100787.84;;;11.17;65.06
66196;BME280;53000;45.182;5.736;2022-11-12T03:10:26;100790.44;;;11.19;64.88
66196;BME280;53000;45.182;5.736;2022-11-12T03:12:52;100786.72;;;11.20;64.64
66196;BME280;53000;45.182;5.736;2022-11-12T03:15:21;100790.44;;;11.19;64.38
66196;BME280;53000;45.182;5.736;2022-11-12T03:17:46;100783.44;;;11.16;64.83
66196;BME280;53000;45.182;5.736;2022-11-12T03:20:19;100784.41;;;11.15;64.89
66196;BME280;53000;45.182;5.736;2022-11-12T03:22:59;100783.97;;;11.10;64.37
66196;BME280;53000;45.182;5.736;2022-11-12T03:25:27;100779.28;;;11.12;64.76
66196;BME280;53000;45.182;5.736;2022-11-12T03:28:09;100777.81;;;11.08;64.07
66196;BME280;53000;45.182;5.736;2022-11-12T03:30:55;100772.66;;;11.05;65.02
66196;BME280;53000;45.182;5.736;2022-11-12T03:33:20;100774.53;;;11.04;64.46
66196;BME280;53000;45.182;5.736;2022-11-12T03:35:51;100777.34;;;11.03;64.51
66196;BME280;53000;45.182;5.736;2022-11-12T03:38:16;100785.50;;;11.03;65.12
66196;BME280;53000;45.182;5.736;2022-11-12T03:40:42;100788.19;;;11.03;64.57
66196;BME280;53000;45.182;5.736;2022-11-12T03:43:07;100782.94;;;11.01;64.92
66196;BME280;53000;45.182;5.736;2022-11-12T03:45:40;100781.06;;;11.02;65.15
66196;BME280;53000;45.182;5.736;2022-11-12T03:48:05;100791.78;;;11.03;64.94
66196;BME280;53000;45.182;5.736;2022-11-12T03:50:31;100781.34;;;10.99;64.32
66196;BME280;53000;45.182;5.736;2022-11-12T03:52:57;100791.19;;;11.00;65.35
66196;BME280;53000;45.182;5.736;2022-11-12T03:55:27;100786.75;;;10.99;64.69
66196;BME280;53000;45.182;5.736;2022-11-12T03:57:56;100786.06;;;10.97;65.30
66196;BME280;53000;45.182;5.736;2022-11-12T04:00:24;100785.91;;;10.98;65.17
66196;BME280;53000;45.182;5.736;2022-11-12T04:02:50;100789.47;;;10.99;65.15
66196;BME280;53000;45.182;5.736;2022-11-12T04:05:15;100791.19;;;11.00;65.09
66196;BME280;53000;45.182;5.736;2022-11-12T04:10:48;100793.91;;;11.00;64.46
66196;BME280;53000;45.182;5.736;2022-11-12T04:13:16;100788.59;;;10.98;64.60
66196;BME280;53000;45.182;5.736;2022-11-12T04:16:00;100787.63;;;10.99;65.07
66196;BME280;53000;45.182;5.736;2022-11-12T04:18:48;100789.47;;;10.99;64.97
66196;BME280;53000;45.182;5.736;2022-11-12T04:21:39;100787.88;;;10.96;64.95
66196;BME280;53000;45.182;5.736;2022-11-12T04:24:38;100779.03;;;10.94;64.25
66196;BME280;53000;45.182;5.736;2022-11-12T04:27:26;100777.75;;;10.89;65.08
66196;BME280;53000;45.182;5.736;2022-11-12T04:29:52;100782.56;;;10.85;64.97
66196;BME280;53000;45.182;5.736;2022-11-12T04:32:46;100778.28;;;10.82;64.99
66196;BME280;53000;45.182;5.736;2022-11-12T04:35:12;100778.53;;;10.79;65.34
66196;BME280;53000;45.182;5.736;2022-11-12T04:37:41;100773.38;;;10.76;64.46
66196;BME280;53000;45.182;5.736;2022-11-12T04:40:14;100777.97;;;10.76;65.54
66196;BME280;53000;45.182;5.736;2022-11-12T04:42:59;100782.66;;;10.74;64.94
66196;BME280;53000;45.182;5.736;2022-11-12T04:45:45;100779.78;;;10.75;65.13
66196;BME280;53000;45.182;5.736;2022-11-12T04:48:11;100773.38;;;10.76;64.90
66196;BME280;53000;45.182;5.736;2022-11-12T04:50:46;100776.09;;;10.76;65.00
66196;BME280;53000;45.182;5.736;2022-11-12T04:53:12;100783.22;;;10.77;64.95
66196;BME280;53000;45.182;5.736;2022-11-12T04:55:38;100776.94;;;10.77;65.16
66196;BME280;53000;45.182;5.736;2022-11-12T04:58:06;100778.81;;;10.76;65.13
66196;BME280;53000;45.182;5.736;2022-11-12T05:00:34;100778.94;;;10.75;65.06
66196;BME280;53000;45.182;5.736;2022-11-12T05:03:02;100776.38;;;10.73;65.40
66196;BME280;53000;45.182;5.736;2022-11-12T05:05:27;100772.66;;;10.74;64.79
66196;BME280;53000;45.182;5.736;2022-11-12T05:07:58;100771.22;;;10.70;64.85
66196;BME280;53000;45.182;5.736;2022-11-12T05:10:24;100772.06;;;10.71;65.00
66196;BME280;53000;45.182;5.736;2022-11-12T05:12:49;100776.63;;;10.70;64.73
66196;BME280;53000;45.182;5.736;2022-11-12T05:15:14;100776.75;;;10.69;64.79
66196;BME280;53000;45.182;5.736;2022-11-12T05:17:43;100773.31;;;10.67;64.63
66196;BME280;53000;45.182;5.736;2022-11-12T05:20:10;100776.03;;;10.67;64.81
66196;BME280;53000;45.182;5.736;2022-11-12T05:22:35;100774.56;;;10.62;64.07
66196;BME280;53000;45.182;5.736;2022-11-12T05:25:06;100778.41;;;10.60;64.69
66196;BME280;53000;45.182;5.736;2022-11-12T05:27:32;100769.56;;;10.58;65.44
66196;BME280;53000;45.182;5.736;2022-11-12T05:30:03;100770.09;;;10.52;65.35
66196;BME280;53000;45.182;5.736;2022-11-12T05:32:29;100769.53;;;10.48;65.34
66196;BME280;53000;45.182;5.736;2022-11-12T05:34:57;100777.31;;;10.41;64.52
66196;BME280;53000;45.182;5.736;2022-11-12T05:37:25;100771.28;;;10.38;65.13
66196;BME280;53000;45.182;5.736;2022-11-12T05:40:00;100770.84;;;10.33;65.26
66196;BME280;53000;45.182;5.736;2022-11-12T05:42:26;100764.69;;;10.31;65.99
66196;BME280;53000;45.182;5.736;2022-11-12T05:44:51;100773.53;;;10.33;65.75
66196;BME280;53000;45.182;5.736;2022-11-12T05:47:29;100763.44;;;10.35;65.21
66196;BME280;53000;45.182;5.736;2022-11-12T05:49:54;100773.28;;;10.36;65.30
66196;BME280;53000;45.182;5.736;2022-11-12T05:52:22;100770.69;;;10.34;65.48
66196;BME280;53000;45.182;5.736;2022-11-12T05:54:50;100771.16;;;10.39;65.21
66196;BME280;53000;45.182;5.736;2022-11-12T05:57:18;100766.72;;;10.38;64.75
66196;BME280;53000;45.182;5.736;2022-11-12T05:59:43;100768.72;;;10.36;65.53
66196;BME280;53000;45.182;5.736;2022-11-12T06:02:11;100767.97;;;10.34;65.67
66196;BME280;53000;45.182;5.736;2022-11-12T06:04:36;100772.41;;;10.35;65.74
66196;BME280;53000;45.182;5.736;2022-11-12T06:07:02;100776.97;;;10.35;64.77
66196;BME280;53000;45.182;5.736;2022-11-12T06:09:30;100765.44;;;10.33;64.84
66196;BME280;53000;45.182;5.736;2022-11-12T06:11:58;100777.84;;;10.35;65.79
66196;BME280;53000;45.182;5.736;2022-11-12T06:14:32;100775.25;;;10.34;64.95
66196;BME280;53000;45.182;5.736;2022-11-12T06:16:57;100780.66;;;10.34;65.53
66196;BME280;53000;45.182;5.736;2022-11-12T06:19:23;100783.66;;;10.31;65.13
66196;BME280;53000;45.182;5.736;2022-11-12T06:21:48;100790.88;;;10.30;64.78
66196;BME280;53000;45.182;5.736;2022-11-12T06:24:19;100787.69;;;10.25;65.07
66196;BME280;53000;45.182;5.736;2022-11-12T06:26:44;100778.72;;;10.24;65.38
66196;BME280;53000;45.182;5.736;2022-11-12T06:29:09;100784.13;;;10.24;65.30
66196;BME280;53000;45.182;5.736;2022-11-12T06:31:35;100781.28;;;10.26;65.30
66196;BME280;53000;45.182;5.736;2022-11-12T06:34:03;100777.47;;;10.29;65.54
66196;BME280;53000;45.182;5.736;2022-11-12T06:36:28;100780.06;;;10.30;65.26
66196;BME280;53000;45.182;5.736;2022-11-12T06:38:59;100781.06;;;10.29;65.36
66196;BME280;53000;45.182;5.736;2022-11-12T06:41:25;100785.72;;;10.27;65.08
66196;BME280;53000;45.182;5.736;2022-11-12T06:43:58;100786.47;;;10.29;65.94
66196;BME280;53000;45.182;5.736;2022-11-12T06:46:26;100783.75;;;10.29;64.93
66196;BME280;53000;45.182;5.736;2022-11-12T06:48:53;100788.16;;;10.30;65.47
66196;BME280;53000;45.182;5.736;2022-11-12T06:51:20;100790.13;;;10.28;64.83
66196;BME280;53000;45.182;5.736;2022-11-12T06:53:46;100799.13;;;10.29;65.53
66196;BME280;53000;45.182;5.736;2022-11-12T06:56:24;100791.25;;;10.26;64.80
66196;BME280;53000;45.182;5.736;2022-11-12T06:58:50;100791.53;;;10.22;65.46
66196;BME280;53000;45.182;5.736;2022-11-12T07:01:20;100790.78;;;10.20;64.85
66196;BME280;53000;45.182;5.736;2022-11-12T07:03:52;100790.78;;;10.20;65.14
66196;BME280;53000;45.182;5.736;2022-11-12T07:06:20;100794.47;;;10.19;65.15
66196;BME280;53000;45.182;5.736;2022-11-12T07:08:51;100796.06;;;10.22;65.82
66196;BME280;53000;45.182;5.736;2022-11-12T07:11:17;100803.06;;;10.24;64.72
66196;BME280;53000;45.182;5.736;2022-11-12T07:13:43;100798.50;;;10.25;65.37
66196;BME280;53000;45.182;5.736;2022-11-12T07:16:10;100800.22;;;10.26;65.95
66196;BME280;53000;45.182;5.736;2022-11-12T07:18:39;100801.22;;;10.25;65.40
66196;BME280;53000;45.182;5.736;2022-11-12T07:21:09;100801.81;;;10.29;66.11
66196;BME280;53000;45.182;5.736;2022-11-12T07:23:41;100804.41;;;10.30;65.20
66196;BME280;53000;45.182;5.736;2022-11-12T07:28:38;100809.91;;;10.40;65.29
66196;BME280;53000;45.182;5.736;2022-11-12T07:31:08;100811.50;;;10.42;65.83
66196;BME280;53000;45.182;5.736;2022-11-12T07:33:34;100812.84;;;10.48;65.02
66196;BME280;53000;45.182;5.736;2022-11-12T07:36:11;100802.44;;;10.53;65.33
66196;BME280;53000;45.182;5.736;2022-11-12T07:38:38;100808.59;;;10.55;65.68
66196;BME280;53000;45.182;5.736;2022-11-12T07:41:12;100809.78;;;10.62;64.97
66196;BME280;53000;45.182;5.736;2022-11-12T07:43:50;100809.41;;;10.67;65.17
66196;BME280;53000;45.182;5.736;2022-11-12T07:46:24;100809.72;;;10.74;64.55
66196;BME280;53000;45.182;5.736;2022-11-12T07:48:53;100810.59;;;10.74;65.47
66196;BME280;53000;45.182;5.736;2022-11-12T07:51:23;100814.13;;;10.75;64.79
66196;BME280;53000;45.182;5.736;2022-11-12T07:53:49;100812.88;;;10.79;65.27
66196;BME280;53000;45.182;5.736;2022-11-12T07:56:18;100814.78;;;10.88;64.60
66196;BME280;53000;45.182;5.736;2022-11-12T07:58:46;100812.25;;;10.96;64.19
66196;BME280;53000;45.182;5.736;2022-11-12T08:03:59;100817.06;;;11.14;64.14
66196;BME280;53000;45.182;5.736;2022-11-12T08:06:25;100814.09;;;11.17;64.59
66196;BME280;53000;45.182;5.736;2022-11-12T08:08:54;100816.81;;;11.26;63.91
66196;BME280;53000;45.182;5.736;2022-11-12T08:11:23;100815.44;;;11.32;63.73
66196;BME280;53000;45.182;5.736;2022-11-12T08:13:51;100816.47;;;11.41;63.88
66196;BME280;53000;45.182;5.736;2022-11-12T08:16:17;100814.91;;;11.48;64.02
66196;BME280;53000;45.182;5.736;2022-11-12T08:18:52;100808.69;;;11.57;63.68
66196;BME280;53000;45.182;5.736;2022-11-12T08:21:18;100811.94;;;11.61;63.78
66196;BME280;53000;45.182;5.736;2022-11-12T08:23:46;100807.41;;;11.71;63.29
66196;BME280;53000;45.182;5.736;2022-11-12T08:26:17;100813.69;;;11.72;62.83
66196;BME280;53000;45.182;5.736;2022-11-12T08:28:46;100803.25;;;11.67;62.93
66196;BME280;53000;45.182;5.736;2022-11-12T08:31:13;100815.69;;;11.70;62.89
66196;BME280;53000;45.182;5.736;2022-11-12T08:33:42;100820.25;;;11.69;63.10
66196;BME280;53000;45.182;5.736;2022-11-12T08:36:11;100813.84;;;11.80;63.29
66196;BME280;53000;45.182;5.736;2022-11-12T08:38:37;100826.22;;;11.94;62.63
66196;BME280;53000;45.182;5.736;2022-11-12T08:41:06;100811.06;;;12.01;62.42
66196;BME280;53000;45.182;5.736;2022-11-12T08:43:34;100812.22;;;12.08;62.66
66196;BME280;53000;45.182;5.736;2022-11-12T08:46:03;100818.97;;;12.23;62.60
66196;BME280;53000;45.182;5.736;2022-11-12T08:48:33;100820.50;;;12.36;62.09
66196;BME280;53000;45.182;5.736;2022-11-12T08:51:02;100816.53;;;12.50;62.05
66196;BME280;53000;45.182;5.736;2022-11-12T08:53:28;100819.47;;;12.66;62.18
66196;BME280;53000;45.182;5.736;2022-11-12T08:56:00;100815.44;;;12.89;61.44
66196;BME280;53000;45.182;5.736;2022-11-12T08:58:27;100810.25;;;13.06;60.57
66196;BME280;53000;45.182;5.736;2022-11-12T09:00:53;100811.72;;;13.28;60.65
66196;BME280;53000;45.182;5.736;2022-11-12T09:03:24;100803.84;;;13.62;60.30
66196;BME280;53000;45.182;5.736;2022-11-12T09:05:56;100812.34;;;14.05;59.78
66196;BME280;53000;45.182;5.736;2022-11-12T09:08:24;100806.75;;;14.42;58.45
66196;BME280;53000;45.182;5.736;2022-11-12T09:10:50;100805.00;;;14.77;58.64
66196;BME280;53000;45.182;5.736;2022-11-12T09:13:18;100807.06;;;15.09;58.80
66196;BME280;53000;45.182;5.736;2022-11-12T09:15:44;100805.38;;;15.43;57.07
66196;BME280;53000;45.182;5.736;2022-11-12T09:18:14;100806.41;;;15.84;57.63
66196;BME280;53000;45.182;5.736;2022-11-12T09:20:40;100811.78;;;16.19;55.70
66196;BME280;53000;45.182;5.736;2022-11-12T09:23:13;100814.03;;;16.48;55.31
66196;BME280;53000;45.182;5.736;2022-11-12T09:25:47;100810.94;;;16.92;53.70
66196;BME280;53000;45.182;5.736;2022-11-12T09:28:14;100805.38;;;17.33;51.66
66196;BME280;53000;45.182;5.736;2022-11-12T09:30:45;100803.53;;;17.65;53.59
66196;BME280;53000;45.182;5.736;2022-11-12T09:33:15;100806.19;;;17.89;51.93
66196;BME280;53000;45.182;5.736;2022-11-12T09:35:42;100799.91;;;18.04;52.12
66196;BME280;53000;45.182;5.736;2022-11-12T09:38:09;100804.63;;;18.18;51.84
66196;BME280;53000;45.182;5.736;2022-11-12T09:43:20;100794.63;;;18.48;50.86
66196;BME280;53000;45.182;5.736;2022-11-12T09:45:51;100789.81;;;18.50;49.84
66196;BME280;53000;45.182;5.736;2022-11-12T09:48:22;100787.63;;;18.69;50.76
66196;BME280;53000;45.182;5.736;2022-11-12T09:50:58;100789.09;;;18.79;49.97
66196;BME280;53000;45.182;5.736;2022-11-12T09:53:39;100781.91;;;18.93;49.18
66196;BME280;53000;45.182;5.736;2022-11-12T09:56:11;100778.50;;;19.06;47.13
66196;BME280;53000;45.182;5.736;2022-11-12T09:58:40;100772.44;;;19.11;48.63
66196;BME280;53000;45.182;5.736;2022-11-12T10:03:59;100783.56;;;19.32;48.33
66196;BME280;53000;45.182;5.736;2022-11-12T10:06:36;100782.88;;;19.30;47.79
66196;BME280;53000;45.182;5.736;2022-11-12T10:09:18;100778.22;;;19.01;47.05
66196;BME280;53000;45.182;5.736;2022-11-12T10:15:16;100763.94;;;18.68;47.29
66196;BME280;53000;45.182;5.736;2022-11-12T10:18:08;100756.88;;;18.73;48.06
66196;BME280;53000;45.182;5.736;2022-11-12T10:23:46;100740.56;;;19.10;48.25
66196;BME280;53000;45.182;5.736;2022-11-12T10:26:23;100741.47;;;19.47;47.31
66196;BME280;53000;45.182;5.736;2022-11-12T10:28:58;100732.63;;;19.66;45.55
66196;BME280;53000;45.182;5.736;2022-11-12T10:31:28;100735.72;;;19.93;46.25
66196;BME280;53000;45.182;5.736;2022-11-12T10:34:20;100731.31;;;20.20;46.76
66196;BME280;53000;45.182;5.736;2022-11-12T10:37:03;100722.34;;;20.33;46.77
66196;BME280;53000;45.182;5.736;2022-11-12T10:39:36;100717.53;;;20.41;46.14
66196;BME280;53000;45.182;5.736;2022-11-12T10:42:05;100711.41;;;20.39;45.20
66196;BME280;53000;45.182;5.736;2022-11-12T10:44:30;100707.78;;;20.39;45.19
66196;BME280;53000;45.182;5.736;2022-11-12T10:47:19;100704.16;;;20.32;44.26
66196;BME280;53000;45.182;5.736;2022-11-12T10:52:29;100707.44;;;20.20;44.53
66196;BME280;53000;45.182;5.736;2022-11-12T10:55:20;100693.09;;;20.25;45.69
66196;BME280;53000;45.182;5.736;2022-11-12T10:58:19;100708.22;;;20.36;44.81
66196;BME280;53000;45.182;5.736;2022-11-12T11:00:57;100693.63;;;20.35;44.46
66196;BME280;53000;45.182;5.736;2022-11-12T11:03:28;100688.53;;;20.39;45.05
66196;BME280;53000;45.182;5.736;2022-11-12T11:06:27;100674.19;;;20.43;45.16
66196;BME280;53000;45.182;5.736;2022-11-12T11:09:16;100674.41;;;20.42;44.89
66196;BME280;53000;45.182;5.736;2022-11-12T11:11:50;100666.16;;;20.42;44.71
66196;BME280;53000;45.182;5.736;2022-11-12T11:14:27;100671.34;;;20.30;44.58
66196;BME280;53000;45.182;5.736;2022-11-12T11:17:00;100669.66;;;20.29;45.17
66196;BME280;53000;45.182;5.736;2022-11-12T11:19:40;100658.06;;;20.34;44.80
66196;BME280;53000;45.182;5.736;2022-11-12T11:25:36;100654.91;;;20.37;44.76
66196;BME280;53000;45.182;5.736;2022-11-12T11:34:40;100638.59;;;19.86;45.33
66196;BME280;53000;45.182;5.736;2022-11-12T11:37:35;100635.91;;;19.71;44.92
66196;BME280;53000;45.182;5.736;2022-11-12T11:40:17;100623.47;;;19.53;45.81
66196;BME280;53000;45.182;5.736;2022-11-12T11:51:49;100605.81;;;19.19;45.90
66196;BME280;53000;45.182;5.736;2022-11-12T11:57:19;100605.25;;;19.09;46.24
66196;BME280;53000;45.182;5.736;2022-11-12T12:00:18;100598.25;;;19.07;46.04
66196;BME280;53000;45.182;5.736;2022-11-12T12:11:23;100562.06;;;19.39;45.47
66196;BME280;53000;45.182;5.736;2022-11-12T12:14:05;100572.28;;;19.46;45.31
66196;BME280;53000;45.182;5.736;2022-11-12T12:16:44;100561.88;;;19.41;45.60
66196;BME280;53000;45.182;5.736;2022-11-12T12:19:34;100569.41;;;19.32;44.86
66196;BME280;53000;45.182;5.736;2022-11-12T12:22:09;100557.97;;;19.29;45.17
66196;BME280;53000;45.182;5.736;2022-11-12T12:25:00;100556.00;;;19.23;45.17
66196;BME280;53000;45.182;5.736;2022-11-12T12:27:34;100552.59;;;19.20;45.11
66196;BME280;53000;45.182;5.736;2022-11-12T12:30:17;100545.72;;;19.10;45.31
66196;BME280;53000;45.182;5.736;2022-11-12T12:33:46;100548.75;;;19.00;45.42
66196;BME280;53000;45.182;5.736;2022-11-12T12:35:55;100542.69;;;18.83;45.67
66196;BME280;53000;45.182;5.736;2022-11-12T12:38:43;100534.72;;;18.73;46.07
66196;BME280;53000;45.182;5.736;2022-11-12T12:41:15;100532.25;;;18.64;46.30
66196;BME280;53000;45.182;5.736;2022-11-12T12:43:54;100533.81;;;18.51;46.02
66196;BME280;53000;45.182;5.736;2022-11-12T12:46:27;100533.81;;;18.51;46.42
66196;BME280;53000;45.182;5.736;2022-11-12T12:49:07;100533.59;;;18.53;46.34
66196;BME280;53000;45.182;5.736;2022-11-12T12:51:39;100525.75;;;18.50;46.77
66196;BME280;53000;45.182;5.736;2022-11-12T12:57:36;100518.78;;;18.47;46.97
66196;BME280;53000;45.182;5.736;2022-11-12T13:02:53;100506.00;;;18.39;46.75
66196;BME280;53000;45.182;5.736;2022-11-12T13:05:29;100503.56;;;18.45;47.14
66196;BME280;53000;45.182;5.736;2022-11-12T13:08:01;100498.44;;;18.42;47.25
66196;BME280;53000;45.182;5.736;2022-11-12T13:13:26;100487.50;;;18.27;47.37
66196;BME280;53000;45.182;5.736;2022-11-12T13:15:56;100475.13;;;18.16;47.27
66196;BME280;53000;45.182;5.736;2022-11-12T13:21:21;100478.25;;;17.98;47.65
66196;BME280;53000;45.182;5.736;2022-11-12T13:23:51;100470.78;;;17.92;47.72
66196;BME280;53000;45.182;5.736;2022-11-12T13:26:51;100460.31;;;17.95;48.09
66196;BME280;53000;45.182;5.736;2022-11-12T13:29:44;100451.59;;;18.07;47.91
66196;BME280;53000;45.182;5.736;2022-11-12T13:35:25;100444.19;;;18.37;47.34
66196;BME280;53000;45.182;5.736;2022-11-12T13:43:11;100433.69;;;18.77;46.21
66196;BME280;53000;45.182;5.736;2022-11-12T13:45:45;100429.41;;;18.89;46.16
66196;BME280;53000;45.182;5.736;2022-11-12T13:50:55;100421.31;;;19.24;45.62
66196;BME280;53000;45.182;5.736;2022-11-12T13:53:25;100423.13;;;19.45;45.54
66196;BME280;53000;45.182;5.736;2022-11-12T13:55:52;100419.25;;;19.61;44.70
66196;BME280;53000;45.182;5.736;2022-11-12T13:58:25;100408.91;;;19.63;44.06
66196;BME280;53000;45.182;5.736;2022-11-12T14:00:53;100411.66;;;19.63;43.15
66196;BME280;53000;45.182;5.736;2022-11-12T14:03:20;100399.56;;;19.57;43.63
66196;BME280;53000;45.182;5.736;2022-11-12T14:05:48;100395.09;;;19.50;43.57
66196;BME280;53000;45.182;5.736;2022-11-12T14:16:43;100383.47;;;18.98;45.36
66196;BME280;53000;45.182;5.736;2022-11-12T14:22:14;100387.97;;;19.06;45.27
66196;BME280;53000;45.182;5.736;2022-11-12T14:24:41;100393.28;;;19.07;44.65
66196;BME280;53000;45.182;5.736;2022-11-12T14:30:19;100379.38;;;18.87;45.79
66196;BME280;53000;45.182;5.736;2022-11-12T14:32:58;100369.63;;;18.85;45.60
66196;BME280;53000;45.182;5.736;2022-11-12T14:38:47;100389.16;;;18.75;45.82
66196;BME280;53000;45.182;5.736;2022-11-12T14:41:23;100392.13;;;18.58;46.02
66196;BME280;53000;45.182;5.736;2022-11-12T14:43:58;100380.25;;;18.51;45.76
66196;BME280;53000;45.182;5.736;2022-11-12T14:46:52;100382.47;;;18.41;46.23